Orcas, Washington
Current Conditions -  °F | °C
As of 5:14 PM on Monday 26 Jan 2015 (Local Time) from KFHR Reporting Station
Overcast Overcast  
Wind Chill: 47°   Ceiling: 500
Heat Index: 47°   Visibility: 10mi
Dew Point: 45°   Wind: 0mph
Humidity: 93%   Direction: NA
Pressure: 29.92"   Gusts: NA
Location:  48.6°N, 122.94°W
Report Text: KFHR 270114Z AUTO 00000KT 10SM OVC005 08/07 A2992 RMK AO2 T00830072
Loading
Personal Weather Stations






























Interactive Weather Map New forecast layout! Learn more

10-Day Weather Forecast

Advertisements
Track Severe Weather on mobile